createdAt,value
2018-03-30T00:00:31.943Z,5.05
2018-03-30T00:03:00.440Z,5.02
2018-03-30T00:05:28.030Z,4.90
2018-03-30T00:07:55.762Z,4.87
2018-03-30T00:10:23.360Z,4.85
2018-03-30T00:12:50.984Z,4.85
2018-03-30T00:15:18.609Z,4.86
2018-03-30T00:17:46.214Z,4.83
2018-03-30T00:20:13.815Z,4.88
2018-03-30T00:22:41.456Z,4.96
2018-03-30T00:25:09.053Z,5.06
2018-03-30T00:27:36.697Z,5.19
2018-03-30T00:30:04.372Z,5.14
2018-03-30T00:32:31.982Z,5.00
2018-03-30T00:34:59.563Z,4.83
2018-03-30T00:37:27.184Z,4.68
2018-03-30T00:39:54.809Z,4.67
2018-03-30T00:42:22.390Z,4.59
2018-03-30T00:44:50.018Z,4.55
2018-03-30T00:47:17.597Z,4.50
2018-03-30T00:49:45.186Z,4.41
2018-03-30T00:52:12.810Z,4.39
2018-03-30T00:54:40.398Z,4.33
2018-03-30T00:57:07.993Z,4.21
2018-03-30T00:59:35.642Z,4.16
2018-03-30T01:02:03.228Z,4.07
2018-03-30T01:04:30.813Z,3.99
2018-03-30T01:06:58.450Z,3.99
2018-03-30T01:09:26.034Z,3.95
2018-03-30T01:11:53.634Z,3.90
2018-03-30T01:14:21.258Z,3.80
2018-03-30T01:16:48.849Z,3.68
2018-03-30T01:19:16.432Z,3.64
2018-03-30T01:21:44.061Z,3.55
2018-03-30T01:24:11.646Z,3.51
2018-03-30T01:26:39.226Z,3.38
2018-03-30T01:29:06.852Z,3.36
2018-03-30T01:31:34.434Z,3.30
2018-03-30T01:34:02.022Z,3.26
2018-03-30T01:36:29.658Z,3.27
2018-03-30T01:38:57.251Z,3.24
2018-03-30T01:41:24.847Z,3.22
2018-03-30T01:43:52.482Z,3.18
2018-03-30T01:46:20.074Z,3.13
2018-03-30T01:48:47.692Z,3.09
2018-03-30T01:51:15.320Z,3.04
2018-03-30T01:53:42.906Z,3.02
2018-03-30T01:56:10.499Z,2.96
2018-03-30T01:58:38.122Z,2.93
2018-03-30T02:01:05.718Z,3.00
2018-03-30T02:03:33.304Z,2.96
2018-03-30T02:06:00.933Z,2.91
2018-03-30T02:08:28.548Z,2.85
2018-03-30T02:10:56.132Z,2.84
2018-03-30T02:13:23.760Z,2.84
2018-03-30T02:15:51.386Z,2.83
2018-03-30T02:18:19.071Z,2.82
2018-03-30T02:20:46.702Z,2.77
2018-03-30T02:23:14.286Z,2.73
2018-03-30T02:25:41.884Z,2.71
2018-03-30T02:28:09.505Z,2.68
2018-03-30T02:30:37.101Z,2.64
2018-03-30T02:33:04.702Z,2.63
2018-03-30T02:35:32.382Z,2.65
2018-03-30T02:37:59.983Z,2.66
2018-03-30T02:40:27.584Z,2.73
2018-03-30T02:42:55.214Z,2.75
2018-03-30T02:45:22.799Z,2.86
2018-03-30T02:47:50.403Z,2.98
2018-03-30T02:50:18.024Z,3.05
2018-03-30T02:52:45.617Z,3.07
2018-03-30T02:55:13.239Z,2.98
2018-03-30T02:57:40.872Z,2.95
2018-03-30T03:00:08.458Z,2.84
2018-03-30T03:02:36.065Z,2.73
2018-03-30T03:05:03.698Z,2.69
2018-03-30T03:07:31.295Z,2.65
2018-03-30T03:09:58.904Z,2.60
2018-03-30T03:12:26.527Z,2.50
2018-03-30T03:14:54.123Z,2.43
2018-03-30T03:17:21.735Z,2.36
2018-03-30T03:19:49.366Z,2.32
2018-03-30T03:22:16.972Z,2.32
2018-03-30T03:24:44.663Z,2.28
2018-03-30T03:27:12.303Z,2.28
2018-03-30T03:29:39.898Z,2.22
2018-03-30T03:32:07.491Z,2.19
2018-03-30T03:34:35.117Z,2.15
2018-03-30T03:37:02.729Z,2.16
2018-03-30T03:39:30.314Z,2.21
2018-03-30T03:41:57.940Z,2.18
2018-03-30T03:44:25.530Z,2.12
2018-03-30T03:46:53.167Z,2.06
2018-03-30T03:49:20.783Z,1.99
2018-03-30T03:51:48.381Z,2.03
2018-03-30T03:54:16.000Z,2.02
2018-03-30T03:56:43.628Z,1.98
2018-03-30T03:59:11.218Z,1.97
2018-03-30T04:01:38.797Z,2.00
2018-03-30T04:04:06.418Z,1.94
2018-03-30T04:06:34.037Z,1.96
2018-03-30T04:09:01.634Z,2.00
2018-03-30T04:11:29.270Z,2.06
2018-03-30T04:13:56.874Z,2.16
2018-03-30T04:16:24.492Z,2.31
2018-03-30T04:18:52.119Z,2.61
2018-03-30T04:21:19.720Z,3.45
2018-03-30T04:23:47.332Z,4.25
2018-03-30T04:26:14.995Z,4.85
2018-03-30T04:28:42.590Z,5.65
2018-03-30T04:31:10.192Z,6.54
2018-03-30T04:33:37.801Z,7.22
2018-03-30T04:36:05.416Z,7.99
2018-03-30T04:38:32.995Z,8.67
2018-03-30T04:41:00.615Z,9.29
2018-03-30T04:43:28.202Z,9.65
2018-03-30T04:45:55.786Z,9.81
2018-03-30T04:48:23.437Z,10.07
2018-03-30T04:50:51.089Z,10.37
2018-03-30T04:53:18.687Z,10.97
2018-03-30T04:55:46.323Z,11.41
2018-03-30T04:58:13.934Z,12.10
2018-03-30T05:00:41.564Z,12.95
2018-03-30T05:03:09.190Z,13.23
2018-03-30T05:05:36.773Z,13.59
2018-03-30T05:08:04.363Z,14.09
2018-03-30T05:10:32.071Z,14.23
2018-03-30T05:12:59.705Z,14.51
2018-03-30T05:15:27.307Z,14.53
2018-03-30T05:17:54.944Z,14.78
2018-03-30T05:20:22.595Z,15.12
2018-03-30T05:22:50.247Z,15.28
2018-03-30T05:25:17.983Z,15.54
2018-03-30T05:27:45.578Z,16.12
2018-03-30T05:30:13.201Z,17.18
2018-03-30T05:32:40.826Z,17.39
2018-03-30T05:35:08.437Z,17.89
2018-03-30T05:37:36.032Z,18.25
2018-03-30T05:40:03.674Z,18.61
2018-03-30T05:42:31.270Z,18.64
2018-03-30T05:44:58.880Z,18.43
2018-03-30T05:47:26.509Z,18.61
2018-03-30T05:49:54.111Z,19.02
2018-03-30T05:52:21.731Z,19.30
2018-03-30T05:54:49.383Z,19.35
2018-03-30T05:57:16.987Z,20.46
2018-03-30T05:59:44.591Z,21.24
2018-03-30T06:02:12.223Z,20.67
2018-03-30T06:04:40.383Z,20.51
2018-03-30T06:07:07.975Z,20.60
2018-03-30T06:09:35.609Z,21.75
2018-03-30T06:12:03.213Z,22.31
2018-03-30T06:14:30.816Z,22.40
2018-03-30T06:16:58.467Z,22.44
2018-03-30T06:19:26.078Z,22.62
2018-03-30T06:21:53.862Z,23.03
2018-03-30T06:24:21.491Z,22.59
2018-03-30T06:26:49.221Z,23.39
2018-03-30T06:29:19.715Z,23.91
2018-03-30T06:31:47.390Z,24.80
2018-03-30T06:34:14.986Z,24.53
2018-03-30T06:36:42.613Z,23.95
2018-03-30T06:39:10.250Z,24.03
2018-03-30T06:41:37.860Z,24.79
2018-03-30T06:44:05.528Z,24.75
2018-03-30T06:46:34.271Z,25.16
2018-03-30T06:49:01.878Z,24.73
2018-03-30T06:51:29.470Z,25.09
2018-03-30T06:53:57.139Z,25.39
2018-03-30T06:56:24.738Z,26.56
2018-03-30T06:58:52.335Z,26.21
2018-03-30T07:01:20.002Z,26.65
2018-03-30T07:03:48.469Z,26.72
2018-03-30T07:06:16.074Z,27.10
2018-03-30T07:08:43.718Z,27.28
2018-03-30T07:11:11.310Z,27.15
2018-03-30T07:13:38.963Z,27.16
2018-03-30T07:16:06.636Z,27.65
2018-03-30T07:18:34.274Z,27.26
2018-03-30T07:21:01.882Z,27.46
2018-03-30T07:23:29.532Z,27.90
2018-03-30T07:25:57.134Z,28.37
2018-03-30T07:28:24.747Z,28.08
2018-03-30T07:30:52.385Z,27.91
2018-03-30T07:33:19.978Z,28.92
2018-03-30T07:35:47.584Z,28.85
2018-03-30T07:38:21.057Z,29.24
2018-03-30T07:40:48.671Z,29.47
2018-03-30T07:43:16.295Z,29.39
2018-03-30T07:45:44.640Z,29.54
2018-03-30T07:48:12.274Z,29.43
2018-03-30T07:50:39.917Z,29.53
2018-03-30T07:53:07.596Z,29.17
2018-03-30T07:55:35.239Z,29.04
2018-03-30T07:58:02.882Z,29.56
2018-03-30T08:00:30.583Z,30.55
2018-03-30T08:02:58.249Z,30.83
2018-03-30T08:05:25.888Z,30.10
2018-03-30T08:07:53.522Z,30.16
2018-03-30T08:10:21.539Z,29.66
2018-03-30T08:12:49.130Z,30.46
2018-03-30T08:15:16.758Z,30.58
2018-03-30T08:17:44.349Z,31.09
2018-03-30T08:20:11.941Z,31.03
2018-03-30T08:22:39.571Z,31.07
2018-03-30T08:25:07.267Z,31.47
2018-03-30T08:27:34.854Z,31.09
2018-03-30T08:30:02.488Z,30.34
2018-03-30T08:32:30.125Z,31.72
2018-03-30T08:34:57.714Z,31.99
2018-03-30T08:37:25.379Z,31.47
2018-03-30T08:39:52.978Z,31.89
2018-03-30T08:42:20.694Z,32.06
2018-03-30T08:44:48.320Z,32.51
2018-03-30T08:47:15.923Z,32.32
2018-03-30T08:49:43.560Z,32.21
2018-03-30T08:52:11.156Z,31.77
2018-03-30T08:54:38.753Z,31.96
2018-03-30T08:57:06.380Z,30.56
2018-03-30T08:59:33.954Z,31.05
2018-03-30T09:02:01.548Z,30.13
2018-03-30T09:04:29.151Z,30.69
2018-03-30T09:06:56.743Z,30.42
2018-03-30T09:09:24.343Z,30.34
2018-03-30T09:11:51.949Z,30.57
2018-03-30T09:14:19.626Z,29.46
2018-03-30T09:16:47.210Z,30.01
2018-03-30T09:19:14.921Z,30.63
2018-03-30T09:21:42.511Z,30.75
2018-03-30T09:24:10.182Z,31.28
2018-03-30T09:26:37.789Z,32.67
2018-03-30T09:29:05.379Z,32.83
2018-03-30T09:31:32.989Z,33.02
2018-03-30T09:34:00.595Z,31.87
2018-03-30T09:36:28.157Z,31.43
2018-03-30T09:38:55.730Z,30.27
2018-03-30T09:41:23.364Z,31.15
2018-03-30T09:43:50.954Z,30.40
2018-03-30T09:46:18.535Z,30.26
2018-03-30T09:48:46.137Z,30.97
2018-03-30T09:51:13.715Z,31.03
2018-03-30T09:53:41.297Z,30.93
2018-03-30T09:56:08.911Z,31.53
2018-03-30T09:58:36.504Z,31.98
2018-03-30T10:01:09.697Z,31.83
2018-03-30T10:03:41.194Z,32.89
2018-03-30T10:06:08.800Z,33.41
2018-03-30T10:08:36.416Z,32.92
2018-03-30T10:11:03.991Z,33.18
2018-03-30T10:13:31.566Z,33.36
2018-03-30T10:15:59.381Z,33.24
2018-03-30T10:18:26.980Z,32.44
2018-03-30T10:20:54.575Z,32.92
2018-03-30T10:23:22.180Z,32.73
2018-03-30T10:25:49.753Z,33.38
2018-03-30T10:28:17.505Z,32.64
2018-03-30T10:30:45.149Z,32.81
2018-03-30T10:33:12.713Z,31.87
2018-03-30T10:35:40.283Z,31.60
2018-03-30T10:38:07.898Z,33.33
2018-03-30T10:40:35.481Z,33.57
2018-03-30T10:43:03.126Z,33.81
2018-03-30T10:45:30.743Z,34.06
2018-03-30T10:47:58.321Z,34.23
2018-03-30T10:50:25.920Z,34.08
2018-03-30T10:52:53.530Z,32.35
2018-03-30T10:55:21.106Z,32.62
2018-03-30T10:57:48.696Z,32.20
2018-03-30T11:00:16.319Z,32.83
2018-03-30T11:02:43.900Z,34.02
2018-03-30T11:05:11.532Z,33.93
2018-03-30T11:07:39.119Z,34.48
2018-03-30T11:10:06.721Z,32.59
2018-03-30T11:12:34.281Z,33.39
2018-03-30T11:15:01.903Z,33.85
2018-03-30T11:17:29.474Z,33.17
2018-03-30T11:19:57.044Z,33.17
2018-03-30T11:22:24.663Z,32.64
2018-03-30T11:24:52.238Z,33.91
2018-03-30T11:27:19.830Z,33.32
2018-03-30T11:29:47.431Z,31.82
2018-03-30T11:32:15.010Z,32.49
2018-03-30T11:34:42.599Z,31.56
2018-03-30T11:37:10.203Z,31.25
2018-03-30T11:39:37.770Z,31.34
2018-03-30T11:42:05.336Z,29.45
2018-03-30T11:44:32.944Z,31.05
2018-03-30T11:47:00.573Z,31.32
2018-03-30T11:49:28.158Z,30.84
2018-03-30T11:51:55.750Z,30.98
2018-03-30T11:54:23.335Z,31.85
2018-03-30T11:56:50.916Z,32.47
2018-03-30T11:59:18.528Z,31.55
2018-03-30T12:01:46.106Z,32.19
2018-03-30T12:04:13.691Z,32.22
2018-03-30T12:06:41.297Z,30.86
2018-03-30T12:09:08.857Z,31.21
2018-03-30T12:11:36.438Z,30.69
2018-03-30T12:14:04.085Z,32.32
2018-03-30T12:16:31.655Z,32.91
2018-03-30T12:18:59.228Z,32.80
2018-03-30T12:21:26.819Z,32.41
2018-03-30T12:23:54.390Z,32.51
2018-03-30T12:26:21.958Z,33.67
2018-03-30T12:28:49.563Z,33.02
2018-03-30T12:31:17.140Z,33.35
2018-03-30T12:33:44.715Z,32.51
2018-03-30T12:36:12.300Z,32.83
2018-03-30T12:38:39.872Z,31.45
2018-03-30T12:41:07.462Z,31.80
2018-03-30T12:43:35.179Z,31.67
2018-03-30T12:46:02.738Z,32.42
2018-03-30T12:48:30.308Z,31.83
2018-03-30T12:50:57.914Z,31.80
2018-03-30T12:53:25.481Z,30.99
2018-03-30T12:55:53.063Z,30.47
2018-03-30T12:58:20.715Z,30.98
2018-03-30T13:00:50.170Z,31.78
2018-03-30T13:03:20.913Z,32.33
2018-03-30T13:05:50.345Z,31.99
2018-03-30T13:08:18.989Z,31.81
2018-03-30T13:10:47.715Z,31.27
2018-03-30T13:13:17.045Z,31.28
2018-03-30T13:15:45.994Z,31.09
2018-03-30T13:18:15.175Z,30.94
2018-03-30T13:20:43.134Z,30.79
2018-03-30T13:23:10.754Z,31.31
2018-03-30T13:25:38.351Z,31.26
2018-03-30T13:28:05.970Z,30.88
2018-03-30T13:30:33.547Z,29.53
2018-03-30T13:33:01.127Z,28.93
2018-03-30T13:35:28.734Z,27.84
2018-03-30T13:37:56.314Z,26.56
2018-03-30T13:40:23.885Z,25.79
2018-03-30T13:42:51.482Z,25.19
2018-03-30T13:45:19.529Z,25.13
2018-03-30T13:47:47.118Z,24.75
2018-03-30T13:50:15.654Z,24.39
2018-03-30T13:56:02.842Z,24.15
2018-03-30T13:58:36.110Z,23.95
2018-03-30T14:01:05.587Z,23.85
2018-03-30T14:03:41.747Z,23.74
2018-03-30T14:06:29.821Z,23.59
2018-03-30T14:09:12.336Z,23.55
2018-03-30T14:11:46.981Z,23.46
2018-03-30T14:14:14.578Z,23.19
2018-03-30T14:16:45.125Z,23.33
2018-03-30T14:19:12.862Z,23.27
2018-03-30T14:21:50.397Z,23.22
2018-03-30T14:24:22.600Z,23.11
2018-03-30T14:26:50.241Z,23.20
2018-03-30T14:29:20.693Z,23.31
2018-03-30T14:31:59.517Z,23.30
2018-03-30T14:34:27.964Z,23.15
2018-03-30T14:36:59.499Z,23.01
2018-03-30T14:42:27.129Z,22.97
2018-03-30T14:44:54.739Z,22.90
2018-03-30T14:47:23.249Z,22.99
2018-03-30T14:50:00.302Z,22.95
2018-03-30T14:52:31.875Z,22.92
2018-03-30T14:55:16.180Z,22.84
2018-03-30T14:57:45.684Z,22.84
2018-03-30T15:00:21.100Z,22.81
2018-03-30T15:02:49.504Z,22.85
2018-03-30T15:08:32.574Z,22.76
2018-03-30T15:14:16.660Z,22.76
2018-03-30T15:16:47.050Z,22.71
2018-03-30T15:19:15.443Z,22.70
2018-03-30T15:22:01.638Z,22.55
2018-03-30T15:24:36.035Z,22.53
2018-03-30T15:27:14.536Z,22.52
2018-03-30T15:29:45.925Z,22.42
2018-03-30T15:32:17.247Z,22.42
2018-03-30T15:34:44.889Z,22.37
2018-03-30T15:37:16.509Z,22.24
2018-03-30T15:39:54.804Z,22.29
2018-03-30T15:42:23.473Z,22.27
2018-03-30T15:44:51.224Z,22.15
2018-03-30T15:47:18.888Z,22.05
2018-03-30T15:49:51.206Z,22.04
2018-03-30T15:52:19.835Z,21.83
2018-03-30T15:54:47.507Z,21.89
2018-03-30T15:57:15.386Z,21.86
2018-03-30T15:59:43.251Z,21.73
2018-03-30T16:02:11.528Z,21.67
2018-03-30T16:04:39.141Z,21.55
2018-03-30T16:07:06.858Z,21.42
2018-03-30T16:09:42.185Z,21.28
2018-03-30T16:12:09.960Z,21.06
2018-03-30T16:14:37.587Z,21.05
2018-03-30T16:17:05.276Z,20.90
2018-03-30T16:19:32.514Z,20.81
2018-03-30T16:21:59.559Z,20.65
2018-03-30T16:24:26.646Z,20.54
2018-03-30T16:26:53.861Z,20.31
2018-03-30T16:29:20.897Z,20.20
2018-03-30T16:31:48.421Z,20.08
2018-03-30T16:34:15.666Z,20.01
2018-03-30T16:36:42.878Z,19.89
2018-03-30T16:39:09.966Z,19.76
2018-03-30T16:41:37.184Z,19.70
2018-03-30T16:44:04.272Z,19.67
2018-03-30T16:46:31.380Z,19.59
2018-03-30T16:48:58.585Z,19.52
2018-03-30T16:51:26.020Z,19.39
2018-03-30T16:53:53.076Z,19.42
2018-03-30T16:56:20.251Z,19.33
2018-03-30T16:58:47.317Z,19.22
2018-03-30T17:01:14.582Z,19.14
2018-03-30T17:03:41.610Z,19.14
2018-03-30T17:06:09.727Z,19.09
2018-03-30T17:08:36.792Z,18.97
2018-03-30T17:11:04.000Z,18.95
2018-03-30T17:13:31.071Z,18.78
2018-03-30T17:15:58.138Z,18.69
2018-03-30T17:18:25.182Z,18.66
2018-03-30T17:20:52.203Z,18.61
2018-03-30T17:23:19.259Z,18.55
2018-03-30T17:25:46.301Z,18.47
2018-03-30T17:28:13.343Z,18.48
2018-03-30T17:30:40.595Z,18.45
2018-03-30T17:33:07.849Z,18.47
2018-03-30T17:35:34.888Z,18.37
2018-03-30T17:38:02.079Z,18.31
2018-03-30T17:40:29.122Z,18.30
2018-03-30T17:42:56.156Z,18.18
2018-03-30T17:45:23.287Z,18.12
2018-03-30T17:47:50.354Z,18.17
2018-03-30T17:50:17.393Z,18.06
2018-03-30T17:52:44.633Z,18.08
2018-03-30T17:55:11.672Z,18.08
2018-03-30T17:57:38.720Z,18.04
2018-03-30T18:00:06.000Z,17.97
2018-03-30T18:02:33.037Z,17.96
2018-03-30T18:05:00.058Z,17.91
2018-03-30T18:07:27.124Z,17.79
2018-03-30T18:09:54.171Z,17.89
2018-03-30T18:12:21.232Z,17.80
2018-03-30T18:14:48.492Z,17.82
2018-03-30T18:17:15.525Z,17.78
2018-03-30T18:19:42.672Z,17.88
2018-03-30T18:22:09.805Z,17.87
2018-03-30T18:24:36.838Z,17.65
2018-03-30T18:27:03.923Z,17.65
2018-03-30T18:29:31.018Z,17.60
2018-03-30T18:31:58.050Z,17.57
2018-03-30T18:34:25.176Z,17.63
2018-03-30T18:36:52.423Z,17.50
2018-03-30T18:39:19.471Z,17.52
2018-03-30T18:41:46.714Z,17.60
2018-03-30T18:44:13.800Z,17.61
2018-03-30T18:46:40.834Z,17.66
2018-03-30T18:49:07.861Z,17.62
2018-03-30T18:51:35.115Z,17.62
2018-03-30T18:54:02.273Z,17.47
2018-03-30T18:56:29.417Z,17.43
2018-03-30T18:58:56.681Z,17.40
2018-03-30T19:01:23.739Z,17.43
2018-03-30T19:03:50.784Z,17.53
2018-03-30T19:06:17.838Z,17.53
2018-03-30T19:08:44.872Z,17.47
2018-03-30T19:11:12.121Z,17.46
2018-03-30T19:13:39.200Z,17.43
2018-03-30T19:16:06.280Z,17.43
2018-03-30T19:18:33.313Z,17.53
2018-03-30T19:38:05.997Z,17.14
2018-03-30T19:40:33.033Z,17.18
2018-03-30T19:43:00.471Z,17.23
2018-03-30T19:45:27.758Z,17.27
2018-03-30T19:47:54.810Z,17.24
2018-03-30T19:50:21.938Z,17.14
2018-03-30T19:52:49.270Z,17.16
2018-03-30T19:55:16.369Z,17.21
2018-03-30T19:57:43.598Z,17.10
2018-03-30T20:00:10.664Z,17.03
2018-03-30T20:02:37.919Z,16.99
2018-03-30T20:05:04.961Z,16.94
2018-03-30T20:07:32.210Z,16.94
2018-03-30T20:09:59.281Z,16.95
2018-03-30T20:12:26.930Z,16.97
2018-03-30T20:14:54.591Z,16.95
2018-03-30T20:17:21.829Z,16.94
2018-03-30T20:19:50.327Z,16.94
2018-03-30T20:22:19.672Z,16.92
2018-03-30T20:24:46.690Z,16.85
2018-03-30T20:27:15.414Z,16.80
2018-03-30T20:29:42.614Z,16.79
2018-03-30T20:32:09.660Z,16.78
2018-03-30T20:34:37.081Z,16.70
2018-03-30T20:37:04.359Z,16.66
2018-03-30T20:39:31.606Z,16.59
2018-03-30T20:41:59.031Z,16.48
2018-03-30T20:44:26.319Z,16.49
2018-03-30T20:46:53.566Z,16.48
2018-03-30T20:49:20.614Z,16.53
2018-03-30T20:51:47.887Z,16.44
2018-03-30T20:54:15.049Z,16.43
2018-03-30T20:56:42.205Z,16.45
2018-03-30T20:59:09.426Z,16.56
2018-03-30T21:01:36.670Z,16.52
2018-03-30T21:04:03.719Z,16.56
2018-03-30T21:06:30.877Z,16.49
2018-03-30T21:08:57.939Z,16.45
2018-03-30T21:11:24.986Z,16.40
2018-03-30T21:13:52.128Z,16.45
2018-03-30T21:16:19.383Z,16.41
2018-03-30T21:18:46.630Z,16.31
2018-03-30T21:21:13.733Z,16.44
2018-03-30T21:23:40.786Z,16.47
2018-03-30T21:26:07.831Z,16.49
2018-03-30T21:28:35.027Z,16.45
2018-03-30T21:31:02.072Z,16.51
2018-03-30T21:33:29.112Z,16.51
2018-03-30T21:35:56.387Z,16.32
2018-03-30T21:38:23.616Z,16.37
2018-03-30T21:40:50.673Z,16.47
2018-03-30T21:43:17.930Z,16.47
2018-03-30T21:45:44.951Z,16.36
2018-03-30T21:48:11.989Z,16.41
2018-03-30T21:50:39.290Z,16.46
2018-03-30T21:53:06.529Z,16.40
2018-03-30T21:55:33.795Z,16.47
2018-03-30T21:58:00.883Z,16.41
2018-03-30T22:00:28.094Z,16.50
2018-03-30T22:02:55.134Z,16.49
2018-03-30T22:05:22.206Z,16.52
2018-03-30T22:07:49.437Z,16.53
2018-03-30T22:10:16.677Z,16.48
2018-03-30T22:12:43.880Z,16.46
2018-03-30T22:15:10.981Z,16.34
2018-03-30T22:17:38.293Z,16.38
2018-03-30T22:22:37.448Z,16.53
2018-03-30T22:25:04.715Z,16.43
2018-03-30T22:27:31.952Z,16.48
2018-03-30T22:29:59.022Z,16.53
2018-03-30T22:32:26.064Z,16.59
2018-03-30T22:34:53.325Z,16.61
2018-03-30T22:37:20.378Z,16.57
2018-03-30T22:39:47.422Z,16.59
2018-03-30T22:42:14.637Z,16.55
2018-03-30T22:44:41.698Z,16.52
2018-03-30T22:47:08.743Z,16.41
2018-03-30T22:49:35.813Z,16.47
2018-03-30T22:52:02.858Z,16.41
2018-03-30T22:54:29.899Z,16.41
2018-03-30T22:56:57.156Z,16.41
2018-03-30T22:59:24.232Z,16.41
2018-03-30T23:01:51.443Z,16.36
2018-03-30T23:04:18.695Z,16.33
2018-03-30T23:06:46.153Z,16.28
2018-03-30T23:09:13.236Z,16.23
2018-03-30T23:11:40.352Z,16.22
2018-03-30T23:14:07.500Z,16.18
2018-03-30T23:16:34.763Z,16.11
2018-03-30T23:19:02.042Z,16.06
2018-03-30T23:21:29.101Z,15.97
2018-03-30T23:23:56.306Z,15.95
2018-03-30T23:26:23.618Z,15.93
2018-03-30T23:28:50.827Z,15.95
2018-03-30T23:31:17.910Z,15.91
2018-03-30T23:33:45.126Z,15.85
2018-03-30T23:36:12.367Z,15.85
2018-03-30T23:38:39.457Z,15.82
2018-03-30T23:41:06.545Z,15.88
2018-03-30T23:43:33.592Z,16.03
2018-03-30T23:46:00.641Z,16.04
2018-03-30T23:48:27.971Z,16.05
2018-03-30T23:50:55.067Z,16.06
2018-03-30T23:53:22.123Z,15.89
2018-03-30T23:55:49.363Z,15.84
2018-03-30T23:58:16.563Z,15.76
